createdAt,value
2022-12-17T00:01:53.075Z,-9.30
2022-12-17T00:04:41.087Z,-9.20
2022-12-17T00:07:26.649Z,-9.20
2022-12-17T00:10:12.481Z,-9.20
2022-12-17T00:12:58.326Z,-9.20
2022-12-17T00:15:44.328Z,-9.00
2022-12-17T00:18:30.247Z,-8.80
2022-12-17T00:21:19.664Z,-8.90
2022-12-17T00:24:06.735Z,-9.10
2022-12-17T00:26:52.624Z,-9.50
2022-12-17T00:29:38.312Z,-9.70
2022-12-17T00:32:24.794Z,-9.60
2022-12-17T00:35:10.473Z,-9.50
2022-12-17T00:37:57.948Z,-9.30
2022-12-17T00:40:43.788Z,-9.10
2022-12-17T00:43:31.876Z,-9.10
2022-12-17T00:46:18.502Z,-9.20
2022-12-17T00:49:04.746Z,-9.40
2022-12-17T00:51:50.274Z,-9.70
2022-12-17T00:54:37.241Z,-9.90
2022-12-17T00:57:23.237Z,-9.70
2022-12-17T01:00:09.101Z,-9.80
2022-12-17T01:02:55.272Z,-9.70
2022-12-17T01:05:41.797Z,-9.70
2022-12-17T01:08:37.667Z,-9.70
2022-12-17T01:11:27.189Z,-9.80
2022-12-17T01:14:13.072Z,-9.80
2022-12-17T01:16:58.906Z,-9.80
2022-12-17T01:19:44.737Z,-9.80
2022-12-17T01:22:30.631Z,-9.70
2022-12-17T01:25:16.586Z,-9.70
2022-12-17T01:28:07.390Z,-9.70
2022-12-17T01:30:55.718Z,-9.70
2022-12-17T01:33:41.961Z,-9.80
2022-12-17T01:36:29.309Z,-9.80
2022-12-17T01:39:26.132Z,-9.70
2022-12-17T01:42:08.185Z,-9.60
2022-12-17T01:45:11.830Z,-9.40
2022-12-17T01:48:03.208Z,-9.50
2022-12-17T01:50:55.026Z,-9.40
2022-12-17T01:53:45.970Z,-9.50
2022-12-17T01:56:32.844Z,-9.40
2022-12-17T01:59:18.540Z,-9.30
2022-12-17T02:02:05.629Z,-9.20
2022-12-17T02:04:52.253Z,-8.90
2022-12-17T02:07:55.741Z,-8.90
2022-12-17T02:10:47.949Z,-8.80
2022-12-17T02:14:11.896Z,-8.70
2022-12-17T02:17:08.037Z,-8.70
2022-12-17T02:20:07.030Z,-8.80
2022-12-17T02:23:08.097Z,-8.80
2022-12-17T02:26:06.336Z,-8.90
2022-12-17T02:28:57.031Z,-8.90
2022-12-17T02:31:45.262Z,-8.90
2022-12-17T02:34:27.579Z,-9.00
2022-12-17T02:37:12.449Z,-9.10
2022-12-17T02:39:58.740Z,-9.30
2022-12-17T02:42:47.506Z,-9.40
2022-12-17T02:45:36.951Z,-9.50
2022-12-17T02:48:24.554Z,-9.60
2022-12-17T02:51:10.412Z,-9.70
2022-12-17T02:54:01.832Z,-9.80
2022-12-17T02:56:48.055Z,-9.80
2022-12-17T02:59:34.075Z,-9.80
2022-12-17T03:02:29.953Z,-9.80
2022-12-17T03:05:44.640Z,-9.80
2022-12-17T03:08:31.596Z,-9.80
2022-12-17T03:11:22.757Z,-9.90
2022-12-17T03:14:08.421Z,-9.90
2022-12-17T03:16:54.483Z,-9.80
2022-12-17T03:19:41.425Z,-9.70
2022-12-17T03:22:27.253Z,-9.50
2022-12-17T03:25:12.806Z,-9.40
2022-12-17T03:27:58.674Z,-9.20
2022-12-17T03:30:48.740Z,-9.10
2022-12-17T03:33:35.455Z,-9.10
2022-12-17T03:36:23.528Z,-8.90
2022-12-17T03:39:09.488Z,-8.60
2022-12-17T03:41:55.283Z,-8.40
2022-12-17T03:44:41.127Z,-8.40
2022-12-17T03:47:26.682Z,-8.40
2022-12-17T03:50:23.695Z,-8.30
2022-12-17T03:53:11.109Z,-8.20
2022-12-17T03:55:56.712Z,-8.10
2022-12-17T03:58:42.646Z,-8.00
2022-12-17T04:01:28.413Z,-7.90
2022-12-17T04:04:14.422Z,-8.00
2022-12-17T04:07:00.423Z,-8.10
2022-12-17T04:09:47.350Z,-8.00
2022-12-17T04:12:33.067Z,-7.90
2022-12-17T04:15:19.134Z,-7.70
2022-12-17T04:18:05.013Z,-7.70
2022-12-17T04:20:50.500Z,-7.70
2022-12-17T04:23:36.396Z,-7.70
2022-12-17T04:26:23.669Z,-7.80
2022-12-17T04:29:09.554Z,-7.80
2022-12-17T04:31:55.313Z,-7.60
2022-12-17T04:34:41.054Z,-7.50
2022-12-17T04:37:26.906Z,-7.40
2022-12-17T04:40:12.795Z,-7.30
2022-12-17T04:42:59.642Z,-7.30
2022-12-17T04:45:45.294Z,-7.20
2022-12-17T04:48:30.755Z,-7.20
2022-12-17T04:51:16.602Z,-7.20
2022-12-17T04:54:02.542Z,-7.10
2022-12-17T04:56:48.342Z,-7.10
2022-12-17T04:59:35.335Z,-7.10
2022-12-17T05:02:21.416Z,-7.10
2022-12-17T05:05:07.225Z,-7.10
2022-12-17T05:07:53.016Z,-7.10
2022-12-17T05:10:38.725Z,-7.10
2022-12-17T05:13:24.314Z,-7.10
2022-12-17T05:16:16.699Z,-7.10
2022-12-17T05:19:02.510Z,-7.10
2022-12-17T05:21:48.508Z,-7.00
2022-12-17T05:24:34.305Z,-7.00
2022-12-17T05:27:19.965Z,-7.00
2022-12-17T05:30:05.720Z,-7.00
2022-12-17T05:32:55.105Z,-7.00
2022-12-17T05:39:16.026Z,-7.00
2022-12-17T05:42:01.872Z,-7.00
2022-12-17T05:44:47.309Z,-7.10
2022-12-17T05:47:32.719Z,-7.20
2022-12-17T05:50:20.224Z,-7.30
2022-12-17T05:53:05.481Z,-7.30
2022-12-17T05:55:51.364Z,-7.30
2022-12-17T05:58:37.222Z,-7.30
2022-12-17T06:01:24.851Z,-7.30
2022-12-17T06:04:10.915Z,-7.20
2022-12-17T06:06:57.933Z,-7.20
2022-12-17T06:09:43.561Z,-7.30
2022-12-17T06:12:29.414Z,-7.30
2022-12-17T06:15:15.114Z,-7.30
2022-12-17T06:18:00.661Z,-7.30
2022-12-17T06:20:46.507Z,-7.40
2022-12-17T06:23:33.679Z,-7.40
2022-12-17T06:26:19.359Z,-7.40
2022-12-17T06:29:05.005Z,-7.50
2022-12-17T06:31:50.583Z,-7.50
2022-12-17T06:34:36.520Z,-7.70
2022-12-17T06:37:22.492Z,-7.70
2022-12-17T06:40:09.361Z,-7.70
2022-12-17T06:42:55.044Z,-7.70
2022-12-17T06:45:40.767Z,-7.80
2022-12-17T06:48:27.989Z,-7.80
2022-12-17T06:51:14.367Z,-7.80
2022-12-17T06:54:00.762Z,-7.70
2022-12-17T06:56:47.808Z,-7.60
2022-12-17T06:59:33.567Z,-7.70
2022-12-17T07:02:19.523Z,-7.70
2022-12-17T07:05:05.253Z,-7.60
2022-12-17T07:07:50.838Z,-7.60
2022-12-17T07:10:36.618Z,-7.60
2022-12-17T07:13:27.938Z,-7.60
2022-12-17T07:16:14.108Z,-7.50
2022-12-17T07:18:59.913Z,-7.50
2022-12-17T07:21:45.923Z,-7.50
2022-12-17T07:24:31.860Z,-7.40
2022-12-17T07:27:17.805Z,-7.40
2022-12-17T07:30:04.851Z,-7.30
2022-12-17T07:33:04.965Z,-7.30
2022-12-17T07:35:50.693Z,-7.30
2022-12-17T07:38:36.210Z,-7.30
2022-12-17T07:41:22.200Z,-7.30
2022-12-17T07:44:08.057Z,-7.30
2022-12-17T07:46:55.147Z,-7.30
2022-12-17T07:49:41.008Z,-7.20
2022-12-17T07:52:26.745Z,-7.20
2022-12-17T07:55:17.942Z,-7.20
2022-12-17T07:58:09.130Z,-7.20
2022-12-17T08:00:54.542Z,-7.10
2022-12-17T08:03:42.336Z,-7.10
2022-12-17T08:06:28.099Z,-7.00
2022-12-17T08:09:15.101Z,-7.00
2022-12-17T08:12:01.093Z,-6.90
2022-12-17T08:14:46.866Z,-6.90
2022-12-17T08:17:32.870Z,-6.90
2022-12-17T08:20:22.364Z,-6.80
2022-12-17T08:23:07.941Z,-6.80
2022-12-17T08:25:53.749Z,-6.80
2022-12-17T08:28:50.414Z,-6.80
2022-12-17T08:31:38.310Z,-6.70
2022-12-17T08:34:24.435Z,-6.60
2022-12-17T08:37:11.707Z,-6.60
2022-12-17T08:39:57.583Z,-6.50
2022-12-17T08:42:48.058Z,-6.40
2022-12-17T08:45:34.136Z,-6.40
2022-12-17T08:48:24.773Z,-6.30
2022-12-17T08:51:10.629Z,-6.20
2022-12-17T08:53:57.646Z,-6.10
2022-12-17T08:56:45.373Z,-6.00
2022-12-17T08:59:31.290Z,-6.10
2022-12-17T09:02:17.359Z,-6.20
2022-12-17T09:05:02.912Z,-6.20
2022-12-17T09:07:48.794Z,-6.20
2022-12-17T09:10:36.382Z,-6.20
2022-12-17T09:13:23.124Z,-6.20
2022-12-17T09:16:12.618Z,-6.10
2022-12-17T09:18:58.997Z,-5.90
2022-12-17T09:21:47.785Z,-5.80
2022-12-17T09:24:33.739Z,-5.70
2022-12-17T09:27:21.010Z,-5.50
2022-12-17T09:30:06.761Z,-5.40
2022-12-17T09:32:52.507Z,-5.40
2022-12-17T09:35:40.900Z,-5.40
2022-12-17T09:38:31.417Z,-5.40
2022-12-17T09:41:32.160Z,-5.50
2022-12-17T09:44:27.877Z,-5.50
2022-12-17T09:47:22.497Z,-5.30
2022-12-17T09:50:08.577Z,-5.00
2022-12-17T09:52:59.486Z,-4.90
2022-12-17T09:55:51.242Z,-4.80
2022-12-17T09:58:40.621Z,-4.80
2022-12-17T10:01:37.130Z,-4.60
2022-12-17T10:04:25.605Z,-4.70
2022-12-17T10:07:11.687Z,-4.70
2022-12-17T10:09:57.713Z,-4.70
2022-12-17T10:12:43.538Z,-4.60
2022-12-17T10:15:33.730Z,-4.70
2022-12-17T10:18:38.809Z,-4.60
2022-12-17T10:21:26.121Z,-4.60
2022-12-17T10:24:24.133Z,-4.60
2022-12-17T10:27:09.964Z,-4.60
2022-12-17T10:29:59.261Z,-4.40
2022-12-17T10:32:46.904Z,-4.10
2022-12-17T10:35:42.188Z,-4.00
2022-12-17T10:38:37.851Z,-4.00
2022-12-17T10:41:26.448Z,-4.00
2022-12-17T10:44:12.384Z,-3.90
2022-12-17T10:47:06.420Z,-3.80
2022-12-17T10:49:52.315Z,-3.70
2022-12-17T10:52:48.239Z,-3.70
2022-12-17T10:55:42.380Z,-3.60
2022-12-17T10:58:34.011Z,-3.40
2022-12-17T11:01:21.940Z,-3.30
2022-12-17T11:04:10.817Z,-3.00
2022-12-17T11:07:01.531Z,-3.00
2022-12-17T11:10:08.607Z,-2.90
2022-12-17T11:13:03.136Z,-2.80
2022-12-17T11:15:58.434Z,-2.80
2022-12-17T11:18:51.780Z,-2.80
2022-12-17T11:21:44.147Z,-2.70
2022-12-17T11:24:39.524Z,-2.40
2022-12-17T11:27:33.695Z,-2.20
2022-12-17T11:30:20.049Z,-2.40
2022-12-17T11:33:25.147Z,-2.40
2022-12-17T11:36:25.801Z,-2.30
2022-12-17T11:39:24.938Z,-1.70
2022-12-17T11:42:22.760Z,-1.20
2022-12-17T11:45:21.991Z,-0.80
2022-12-17T11:48:16.804Z,-1.10
2022-12-17T11:51:10.969Z,-1.30
2022-12-17T11:54:16.541Z,-1.40
2022-12-17T11:57:23.054Z,-1.70
2022-12-17T12:00:20.763Z,-1.80
2022-12-17T12:03:26.803Z,-1.90
2022-12-17T12:06:19.012Z,-1.90
2022-12-17T12:09:17.959Z,-2.00
2022-12-17T12:12:18.472Z,-1.90
2022-12-17T12:15:16.179Z,-1.60
2022-12-17T12:18:12.832Z,-1.30
2022-12-17T12:21:29.035Z,-1.20
2022-12-17T12:24:54.094Z,-1.40
2022-12-17T12:27:49.698Z,-1.60
2022-12-17T12:30:41.868Z,-1.80
2022-12-17T12:33:43.931Z,-2.20
2022-12-17T12:36:35.753Z,-2.50
2022-12-17T12:39:22.040Z,-2.70
2022-12-17T12:42:15.937Z,-3.00
2022-12-17T12:45:14.123Z,-3.00
2022-12-17T12:48:14.567Z,-3.00
2022-12-17T12:51:19.115Z,-3.00
2022-12-17T12:54:15.698Z,-3.00
2022-12-17T12:57:01.453Z,-2.90
2022-12-17T12:59:49.467Z,-2.80
2022-12-17T13:02:47.485Z,-2.90
2022-12-17T13:05:34.601Z,-3.00
2022-12-17T13:08:21.904Z,-3.10
2022-12-17T13:10:51.701Z,-3.20
2022-12-17T13:13:36.156Z,-3.00
2022-12-17T13:16:26.457Z,-2.80
2022-12-17T13:19:17.521Z,-2.70
2022-12-17T13:21:47.411Z,-2.60
2022-12-17T13:24:27.207Z,-2.50
2022-12-17T13:26:55.615Z,-2.40
2022-12-17T13:29:30.779Z,-2.40
2022-12-17T13:32:24.849Z,-2.40
2022-12-17T13:35:10.621Z,-2.40
2022-12-17T13:37:58.554Z,-2.50
2022-12-17T13:40:44.974Z,-2.50
2022-12-17T13:43:25.850Z,-2.60
2022-12-17T13:45:57.075Z,-2.80
2022-12-17T13:48:27.933Z,-2.90
2022-12-17T13:50:59.771Z,-3.10
2022-12-17T13:53:34.044Z,-3.10
2022-12-17T13:56:03.421Z,-3.20
2022-12-17T13:58:36.395Z,-3.10
2022-12-17T14:01:08.376Z,-3.10
2022-12-17T14:04:04.437Z,-3.10
2022-12-17T14:06:30.235Z,-3.10
2022-12-17T14:09:00.999Z,-3.20
2022-12-17T14:11:46.849Z,-3.20
2022-12-17T14:14:27.410Z,-3.10
2022-12-17T14:16:59.029Z,-3.10
2022-12-17T14:19:29.411Z,-3.10
2022-12-17T14:21:58.553Z,-3.10
2022-12-17T14:24:30.183Z,-3.10
2022-12-17T14:27:01.565Z,-3.10
2022-12-17T14:29:32.720Z,-3.20
2022-12-17T14:32:04.360Z,-3.20
2022-12-17T14:34:42.761Z,-3.20
2022-12-17T14:37:22.710Z,-3.20
2022-12-17T14:39:55.844Z,-3.30
2022-12-17T14:42:29.498Z,-3.30
2022-12-17T14:45:02.030Z,-3.40
2022-12-17T14:47:33.014Z,-3.50
2022-12-17T14:50:08.035Z,-3.50
2022-12-17T14:52:45.104Z,-3.60
2022-12-17T14:55:39.812Z,-3.70
2022-12-17T14:58:22.169Z,-3.80
2022-12-17T15:00:55.608Z,-4.00
2022-12-17T15:03:29.521Z,-4.10
2022-12-17T15:06:02.501Z,-4.20
2022-12-17T15:08:36.022Z,-4.30
2022-12-17T15:11:06.427Z,-4.40
2022-12-17T15:13:35.900Z,-4.60
2022-12-17T15:16:04.428Z,-4.80
2022-12-17T15:18:32.794Z,-5.10
2022-12-17T15:21:01.231Z,-5.20
2022-12-17T15:23:30.085Z,-5.40
2022-12-17T15:25:58.648Z,-5.50
2022-12-17T15:28:28.943Z,-5.60
2022-12-17T15:30:58.416Z,-5.70
2022-12-17T15:33:26.894Z,-5.80
2022-12-17T15:35:55.222Z,-5.90
2022-12-17T15:38:23.555Z,-5.90
2022-12-17T15:40:53.669Z,-6.00
2022-12-17T15:43:20.907Z,-6.20
2022-12-17T15:45:53.558Z,-6.20
2022-12-17T15:48:23.921Z,-6.30
2022-12-17T15:50:52.145Z,-6.40
2022-12-17T15:53:20.838Z,-6.40
2022-12-17T15:55:49.126Z,-6.20
2022-12-17T15:58:19.129Z,-6.20
2022-12-17T16:00:47.547Z,-6.30
2022-12-17T16:03:17.528Z,-6.40
2022-12-17T16:05:46.019Z,-6.40
2022-12-17T16:08:14.990Z,-6.40
2022-12-17T16:10:44.174Z,-6.50
2022-12-17T16:13:16.538Z,-6.70
2022-12-17T16:15:45.239Z,-6.80
2022-12-17T16:18:16.324Z,-6.80
2022-12-17T16:20:46.188Z,-6.90
2022-12-17T16:23:14.686Z,-6.90
2022-12-17T16:25:42.835Z,-6.90
2022-12-17T16:28:11.244Z,-7.00
2022-12-17T16:30:39.709Z,-7.10
2022-12-17T16:33:08.087Z,-7.20
2022-12-17T16:35:36.397Z,-7.00
2022-12-17T16:38:06.417Z,-6.90
2022-12-17T16:40:34.742Z,-7.00
2022-12-17T16:43:04.142Z,-7.20
2022-12-17T16:45:32.991Z,-7.30
2022-12-17T16:48:01.306Z,-7.40
2022-12-17T16:50:30.658Z,-7.50
2022-12-17T16:52:58.885Z,-7.50
2022-12-17T16:55:28.889Z,-7.40
2022-12-17T16:57:57.529Z,-7.40
2022-12-17T17:00:25.923Z,-7.40
2022-12-17T17:03:03.136Z,-7.40
2022-12-17T17:05:37.045Z,-7.40
2022-12-17T17:08:36.436Z,-7.30
2022-12-17T17:11:18.059Z,-7.30
2022-12-17T17:13:47.112Z,-7.40
2022-12-17T17:16:20.071Z,-7.40
2022-12-17T17:18:49.157Z,-7.50
2022-12-17T17:21:40.746Z,-7.50
2022-12-17T17:24:20.918Z,-7.40
2022-12-17T17:30:15.647Z,-7.30
2022-12-17T17:32:45.249Z,-7.30
2022-12-17T17:35:13.656Z,-7.30
2022-12-17T17:37:42.083Z,-7.30
2022-12-17T17:40:13.832Z,-7.30
2022-12-17T17:42:51.947Z,-7.30
2022-12-17T17:45:25.609Z,-7.20
2022-12-17T17:48:17.957Z,-7.20
2022-12-17T17:50:58.760Z,-7.20
2022-12-17T17:56:17.012Z,-7.40
2022-12-17T17:58:50.219Z,-7.50
2022-12-17T18:01:22.070Z,-7.50
2022-12-17T18:03:51.151Z,-7.70
2022-12-17T18:06:20.580Z,-7.70
2022-12-17T18:08:49.223Z,-7.70
2022-12-17T18:11:23.553Z,-7.80
2022-12-17T18:14:10.455Z,-7.80
2022-12-17T18:16:41.243Z,-7.90
2022-12-17T18:19:13.246Z,-8.00
2022-12-17T18:24:21.368Z,-7.80
2022-12-17T18:26:53.564Z,-7.80
2022-12-17T18:29:36.421Z,-7.70
2022-12-17T18:32:09.057Z,-7.70
2022-12-17T18:34:44.131Z,-7.60
2022-12-17T18:37:13.164Z,-7.40
2022-12-17T18:39:41.879Z,-7.40
2022-12-17T18:42:27.912Z,-7.40
2022-12-17T18:44:58.546Z,-7.40
2022-12-17T18:47:27.179Z,-7.30
2022-12-17T18:49:57.446Z,-7.30
2022-12-17T18:52:26.431Z,-7.50
2022-12-17T18:57:58.554Z,-7.50
2022-12-17T19:00:34.081Z,-7.50
2022-12-17T19:03:04.844Z,-7.60
2022-12-17T19:05:35.476Z,-7.60
2022-12-17T19:08:04.115Z,-7.80
2022-12-17T19:10:32.753Z,-7.90
2022-12-17T19:13:01.335Z,-7.90
2022-12-17T19:15:29.583Z,-7.90
2022-12-17T19:17:59.286Z,-8.00
2022-12-17T19:20:27.549Z,-8.10
2022-12-17T19:22:56.104Z,-8.20
2022-12-17T19:25:24.583Z,-8.20
2022-12-17T19:28:00.650Z,-8.20
2022-12-17T19:30:29.323Z,-8.10
2022-12-17T19:32:58.910Z,-8.10
2022-12-17T19:35:27.330Z,-8.00
2022-12-17T19:37:55.584Z,-7.90
2022-12-17T19:40:24.033Z,-8.00
2022-12-17T19:42:52.523Z,-8.00
2022-12-17T19:45:21.764Z,-8.10
2022-12-17T19:47:50.747Z,-8.10
2022-12-17T19:50:20.568Z,-8.00
2022-12-17T19:52:53.286Z,-8.10
2022-12-17T19:55:22.039Z,-8.20
2022-12-17T19:58:11.612Z,-8.30
2022-12-17T20:01:08.521Z,-8.50
2022-12-17T20:03:39.580Z,-8.70
2022-12-17T20:06:12.180Z,-8.60
2022-12-17T20:08:45.467Z,-8.60
2022-12-17T20:11:35.385Z,-8.40
2022-12-17T20:14:09.293Z,-8.20
2022-12-17T20:16:40.955Z,-7.90
2022-12-17T20:19:13.919Z,-7.70
2022-12-17T20:21:44.428Z,-7.60
2022-12-17T20:24:13.445Z,-7.60
2022-12-17T20:26:42.835Z,-7.60
2022-12-17T20:29:12.067Z,-7.50
2022-12-17T20:31:48.046Z,-7.60
2022-12-17T20:34:20.335Z,-7.60
2022-12-17T20:36:50.806Z,-7.70
2022-12-17T20:39:25.956Z,-7.70
2022-12-17T20:41:55.309Z,-7.70
2022-12-17T20:44:23.915Z,-7.70
2022-12-17T20:46:52.469Z,-7.80
2022-12-17T20:49:20.695Z,-7.90
2022-12-17T20:51:51.831Z,-7.90
2022-12-17T20:54:20.512Z,-7.80
2022-12-17T20:56:49.407Z,-7.80
2022-12-17T20:59:19.847Z,-7.80
2022-12-17T21:01:55.534Z,-7.80
2022-12-17T21:04:24.991Z,-7.80
2022-12-17T21:06:57.074Z,-7.60
2022-12-17T21:09:25.667Z,-7.70
2022-12-17T21:11:54.617Z,-7.70
2022-12-17T21:14:23.216Z,-7.70
2022-12-17T21:16:51.801Z,-7.70
2022-12-17T21:19:21.150Z,-7.70
2022-12-17T21:21:50.552Z,-7.90
2022-12-17T21:24:20.816Z,-7.90
2022-12-17T21:26:49.980Z,-8.00
2022-12-17T21:29:39.192Z,-8.00
2022-12-17T21:32:07.588Z,-8.10
2022-12-17T21:34:35.837Z,-8.10
2022-12-17T21:37:05.080Z,-8.20
2022-12-17T21:39:47.098Z,-8.30
2022-12-17T21:42:32.904Z,-8.30
2022-12-17T21:45:01.368Z,-8.40
2022-12-17T21:47:57.450Z,-8.40
2022-12-17T21:50:25.861Z,-8.50
2022-12-17T21:53:07.561Z,-8.50
2022-12-17T21:55:37.767Z,-8.60
2022-12-17T21:58:06.481Z,-8.60
2022-12-17T22:00:35.699Z,-8.60
2022-12-17T22:03:04.654Z,-8.70
2022-12-17T22:05:32.893Z,-8.70
2022-12-17T22:08:01.274Z,-8.60
2022-12-17T22:10:39.411Z,-8.50
2022-12-17T22:13:27.884Z,-8.50
2022-12-17T22:15:56.756Z,-8.50
2022-12-17T22:18:26.551Z,-8.60
2022-12-17T22:21:02.958Z,-8.60
2022-12-17T22:23:31.199Z,-8.70
2022-12-17T22:25:59.737Z,-8.70
2022-12-17T22:28:29.393Z,-8.90
2022-12-17T22:31:15.171Z,-8.90
2022-12-17T22:34:27.779Z,-8.90
2022-12-17T22:38:45.438Z,-8.90
2022-12-17T22:44:28.324Z,-8.80
2022-12-17T22:44:45.956Z,-9.00
2022-12-17T22:45:19.198Z,-9.10
2022-12-17T22:47:48.028Z,-9.30
2022-12-17T22:50:16.535Z,-9.50
2022-12-17T22:52:45.474Z,-9.50
2022-12-17T22:55:14.113Z,-9.40
2022-12-17T22:57:43.144Z,-9.40
2022-12-17T23:00:18.761Z,-9.40
2022-12-17T23:02:47.088Z,-9.50
2022-12-17T23:05:15.683Z,-9.50
2022-12-17T23:07:43.911Z,-9.40
2022-12-17T23:10:12.151Z,-9.40
2022-12-17T23:12:52.985Z,-9.20
2022-12-17T23:15:28.597Z,-8.90
2022-12-17T23:18:00.125Z,-8.80
2022-12-17T23:20:32.428Z,-9.00
2022-12-17T23:23:01.427Z,-9.20
2022-12-17T23:25:30.449Z,-9.20
2022-12-17T23:27:58.870Z,-9.20
2022-12-17T23:30:28.695Z,-9.20
2022-12-17T23:32:57.032Z,-9.00
2022-12-17T23:35:25.225Z,-8.80
2022-12-17T23:37:54.125Z,-8.90
2022-12-17T23:40:22.647Z,-9.00
2022-12-17T23:42:51.148Z,-9.00
2022-12-17T23:45:19.382Z,-8.90
2022-12-17T23:47:49.026Z,-8.80
2022-12-17T23:50:17.643Z,-8.60
2022-12-17T23:52:45.878Z,-8.40
2022-12-17T23:55:14.189Z,-8.50
2022-12-17T23:57:42.500Z,-8.60
